Weather at Ponza Heliport

Public forecast

Using degrees Celsius for public forecast. Weather courtesy of forecast.io.

Closest aviation weather report (METAR) to Ponza Heliport

Report is more than 6 hours old.

Closest report is Latina Air Base, 38.6 nm (71.6 km) N.

2024/07/12 17:55 (retrieved 2 days ago)

LIRL 121755Z /////KT CAVOK 32/21 Q1011 RMK SKC MON LIB NC VIS MIN 9999 WIND THR12 /////KT WIND THR30 24004KT BLU

Closest aviation forecast (TAF) to Ponza Heliport

Closest forecast is Ciampino–G. B. Pastine International Airport, 56.3 nm (104.3 km) NNW.

2024/07/14 12:00 (retrieved 6 hours ago)

TAF LIRA 141100Z 1412/1512 24010KT CAVOK BECMG 1417/1419 VRB05KT BECMG 1510/1512 25010KT